Flight Track Log - Related Links

Times and Time Zones

All times are in EDT time to prevent confusion due to time zone crossing. See the UAL256 flight status page for this flight to view local times or setup timezone preferences in your user account.

Time Position Orientation Groundspeed Altitude Reporting Facility
EDT Latitude Longitude Course Direction KTS MPH feet Rate Location/Type
Mon 09:13:23 PM 39.8833 -104.6000 57° Northeast 178 205 6,800  Level Denver TRACON
Mon 09:14:29 PM 39.9000 -104.5167 75° East 231 266 8,000 1,333 Climbing Denver TRACON
Mon 09:15:29 PM 39.9167 -104.4167 78° East 307 353 9,600 1,531 Climbing Denver TRACON
Mon 09:16:00 PM 39.9571 -104.0788 66° East  Level FlightAware
Mon 09:16:07 PM 39.9242 -104.3728 77° East 305 351 10,500  Level Denver Center
Mon 09:17:00 PM 39.9836 -103.9315 79° East  Level FlightAware
Mon 09:17:10 PM 39.9589 -104.2083 75° East 389 448 11,900  Level Denver Center
Mon 09:18:00 PM 40.0078 -103.7845 57° Northeast  Level FlightAware
Mon 09:18:11 PM 39.9561 -104.0472 91° East 412 474 15,000  Level Denver Center
Mon 09:19:13 PM 39.9892 -103.9067 73° East 408 470 18,600 3,097 Climbing Denver Center
Mon 09:20:15 PM 40.0222 -103.7583 74° East 397 457 21,400 1,839 Climbing Denver Center
Mon 09:21:17 PM 40.0486 -103.6003 78° East 422 486 22,400 1,016 Climbing Denver Center
Mon 09:22:19 PM 40.0761 -103.4333 78° East 465 535 23,500 1,258 Climbing Denver Center
Mon 09:23:21 PM 40.1031 -103.2614 78° East 478 550 25,000 1,306 Climbing Denver Center
Mon 09:24:23 PM 40.1339 -103.0828 77° East 498 573 26,200 1,113 Climbing Denver Center
Mon 09:25:25 PM 40.1622 -102.8978 79° East 513 590 27,300 1,306 Climbing Denver Center
Mon 09:26:27 PM 40.1903 -102.7117 79° East 517 595 28,900 1,548 Climbing Denver Center
Mon 09:27:29 PM 40.2278 -102.5297 75° East 508 585 30,500 1,694 Climbing Denver Center
Mon 09:28:31 PM 40.2906 -102.3472 66° East 491 565 32,400 1,597 Climbing Denver Center
Mon 09:29:33 PM 40.3422 -102.1919 66° East 485 558 33,800 1,268 Climbing Denver Center
Mon 09:30:34 PM 40.4019 -102.0114 66° East 484 557 35,000 1,366 Climbing Denver Center
Mon 09:31:36 PM 40.4514 -101.8594 67° East 476 548 36,600 968 Climbing Denver Center
Mon 09:32:38 PM 40.5086 -101.6861 66° East 466 536 37,000 194 Climbing Denver Center
Mon 09:33:40 PM 40.5583 -101.5347 67° East 471 542 37,000 484 Level Denver Center
Mon 09:34:42 PM 40.6072 -101.3819 67° East 474 545 38,000 871 Climbing Denver Center
Mon 09:35:44 PM 40.6642 -101.2069 67° East 468 539 38,800 484 Climbing Denver Center
Mon 09:36:46 PM 40.7117 -101.0575 67° East 463 533 39,000 97 Climbing Denver Center
Mon 09:37:48 PM 40.7658 -100.8856 67° East 456 525 39,000  Level Denver Center
Mon 09:38:50 PM 40.8183 -100.7186 67° East 460 529 39,000  Level Denver Center
Mon 09:39:52 PM 40.8667 -100.5711 67° East 467 537 39,000  Level Denver Center
Mon 09:40:53 PM 40.9031 -100.3878 75° East 466 536 39,000  Level Denver Center
Mon 09:41:55 PM 40.9142 -100.2253 85° East 466 536 39,000 -48 Level Denver Center
Mon 09:42:57 PM 40.9275 -100.0333 85° East 468 539 38,900  Descending Denver Center
Mon 09:43:59 PM 40.9386 -99.8689 85° East 469 540 39,000 48 Climbing Denver Center
Mon 09:45:01 PM 40.9483 -99.7108 85° East 471 542 39,000  Level Denver Center
Mon 09:46:03 PM 40.9619 -99.5053 85° East 469 540 39,000  Level Denver Center
Mon 09:47:05 PM 40.9722 -99.3367 85° East 464 534 39,000  Level Denver Center
Mon 09:48:07 PM 40.9825 -99.1678 85° East 463 533 39,000 -48 Level Denver Center
Mon 09:49:09 PM 40.9917 -99.0008 86° East 458 527 38,900 -48 Descending Denver Center
Mon 09:50:11 PM 41.0019 -98.8133 86° East 458 527 38,900 48 Level Denver Center
Mon 09:51:13 PM 41.0131 -98.6381 85° East 462 532 39,000 48 Climbing Denver Center
Mon 09:52:15 PM 41.0225 -98.4700 86° East 463 533 39,000  Level Denver Center
Mon 09:53:27 PM 41.0328 -98.2653 86° East 465 535 39,000  Level Minneapolis Center
Mon 09:54:28 PM 41.0417 -98.0944 86° East 467 537 39,000  Level Minneapolis Center
Mon 09:55:30 PM 41.0500 -97.9256 86° East 463 533 39,000  Level Minneapolis Center
Mon 09:56:31 PM 41.0583 -97.7558 86° East 463 533 39,000  Level Minneapolis Center
Mon 09:58:00 PM 41.0609 -97.5313 89° East  Level FlightAware
Mon 09:58:33 PM 41.0733 -97.4136 89° East 465 535 39,000  Level Minneapolis Center
Mon 09:59:34 PM 41.0814 -97.2358 87° East 468 539 39,000  Level Minneapolis Center
Mon 10:00:35 PM 41.0886 -97.0608 87° East 474 545 39,000 -49 Level Minneapolis Center
Mon 10:01:36 PM 41.0961 -96.8914 87° East 465 535 38,900  Descending Minneapolis Center
Mon 10:02:37 PM 41.1042 -96.6897 87° East 460 529 39,000 49 Climbing Minneapolis Center
Mon 10:03:38 PM 41.1108 -96.5175 87° East 468 539 39,000  Level Minneapolis Center
Mon 10:04:39 PM 41.1178 -96.3447 87° East 472 543 39,000  Level Minneapolis Center
Mon 10:05:40 PM 41.1231 -96.1731 88° East 472 543 39,000  Level Minneapolis Center
Mon 10:06:41 PM 41.1289 -95.9997 87° East 472 543 39,000  Level Minneapolis Center
Mon 10:07:42 PM 41.1350 -95.8286 87° East 467 537 39,000 -49 Level Minneapolis Center
Mon 10:08:43 PM 41.1406 -95.6558 87° East 467 537 38,900  Descending Minneapolis Center
Mon 10:09:44 PM 41.1433 -95.4903 89° East 471 542 39,000 49 Climbing Minneapolis Center
Mon 10:10:45 PM 41.1497 -95.2822 88° East 472 543 39,000  Level Minneapolis Center
Mon 10:11:46 PM 41.1550 -95.1081 88° East 475 547 39,000  Level Minneapolis Center
Mon 10:12:47 PM 41.1581 -94.9336 89° East 475 547 39,000  Level Minneapolis Center
Mon 10:13:48 PM 41.1619 -94.7597 88° East 473 544 39,000  Level Minneapolis Center
Mon 10:14:49 PM 41.1644 -94.5850 89° East 474 545 39,000  Level Minneapolis Center
Mon 10:15:50 PM 41.1697 -94.4103 88° East 474 545 39,000  Level Minneapolis Center
Mon 10:16:51 PM 41.1708 -94.2367 89° East 472 543 39,000  Level Minneapolis Center
Mon 10:17:52 PM 41.1750 -94.0511 88° East 475 547 39,000  Level Minneapolis Center
Mon 10:18:53 PM 41.1775 -93.8792 89° East 472 543 39,000  Level Minneapolis Center
Mon 10:19:54 PM 41.1797 -93.7064 89° East 471 542 39,000  Level Minneapolis Center
Mon 10:20:55 PM 41.1817 -93.5350 89° East 469 540 39,000 -49 Level Minneapolis Center
Mon 10:21:56 PM 41.1844 -93.3603 89° East 473 544 38,900 -49 Descending Minneapolis Center
Mon 10:22:57 PM 41.1864 -93.1869 89° East 473 544 38,900 49 Level Minneapolis Center
Mon 10:23:58 PM 41.1875 -93.0131 89° East 473 544 39,000 49 Climbing Minneapolis Center
Mon 10:24:59 PM 41.1886 -92.8361 89° East 478 550 39,000 -344 Level Minneapolis Center
Mon 10:26:00 PM 41.1897 -92.6592 89° East 480 552 38,300 -900 Descending Minneapolis Center
Mon 10:26:39 PM 41.1897 -92.5219 90° East 467 537 37,500 -960 Descending Chicago Center
Mon 10:27:40 PM 41.1900 -92.3511 90° East 464 534 36,700 -1,672 Descending Chicago Center
Mon 10:28:41 PM 41.1908 -92.1764 90° East 472 543 34,100 -1,820 Descending Chicago Center
Mon 10:29:42 PM 41.1900 -91.9989 90° East 483 556 33,000 -541 Descending Chicago Center
Mon 10:30:43 PM 41.1897 -91.8214 90° East 484 557 33,000  Level Chicago Center
Mon 10:31:45 PM 41.1881 -91.6269 91° East 486 559 33,000  Level Chicago Center
Mon 10:32:46 PM 41.1872 -91.4483 90° East 483 556 33,000  Level Chicago Center
Mon 10:33:47 PM 41.1861 -91.2703 90° East 482 555 33,000  Level Chicago Center
Mon 10:34:48 PM 41.1847 -91.0914 91° East 484 557 33,000 -49 Level Chicago Center
Mon 10:35:49 PM 41.1836 -90.9097 90° East 490 564 32,900  Descending Chicago Center
Mon 10:36:51 PM 41.1808 -90.7253 91° East 499 574 33,000 -439 Climbing Chicago Center
Mon 10:37:52 PM 41.1783 -90.5394 91° East 502 578 32,000 -1,377 Descending Chicago Center
Mon 10:38:53 PM 41.1753 -90.3542 91° East 501 577 30,200 -1,770 Descending Chicago Center
Mon 10:39:54 PM 41.1722 -90.1753 91° East 487 560 28,400 -1,820 Descending Chicago Center
Mon 10:40:55 PM 41.1728 -89.9922 90° East 494 568 26,500 -1,918 Descending Chicago Center
Mon 10:41:56 PM 41.2150 -89.8178 72° East 497 572 24,500 -2,164 Descending Chicago Center
Mon 10:42:57 PM 41.2706 -89.6161 70° East 483 556 22,100 -2,146 Descending Chicago Center
Mon 10:43:59 PM 41.3144 -89.4533 70° East 470 541 20,100 -2,049 Descending Chicago Center
Mon 10:45:00 PM 41.3561 -89.2981 70° East 449 517 17,900 -2,066 Descending Chicago Center
Mon 10:46:01 PM 41.3981 -89.1381 71° East 435 501 15,900 -1,869 Descending Chicago Center
Mon 10:47:02 PM 41.4386 -88.9861 70° East 438 504 14,100 -1,770 Descending Chicago Center
Mon 10:48:03 PM 41.4772 -88.8394 71° East 424 488 12,300 -1,525 Descending Chicago Center
Mon 10:49:04 PM 41.5197 -88.6989 68° East 415 478 11,000 -639 Descending Chicago Center
Mon 10:50:05 PM 41.5900 -88.5797 52° Northeast 407 468 11,000  Level Chicago Center
Mon 10:51:06 PM 41.6600 -88.4603 52° Northeast 408 470 11,000  Level Chicago Center
Mon 10:52:07 PM 41.7294 -88.3428 52° Northeast 402 463 11,000 -295 Level Chicago Center
Mon 10:53:08 PM 41.7989 -88.2272 51° Northeast 395 455 10,400 -639 Descending Chicago Center
Mon 10:54:09 PM 41.8767 -88.1700 29° Northeast 325 374 9,700 -934 Descending Chicago Center
Mon 10:55:10 PM 41.9592 -88.1428 14° North 308 354 8,500 -1,230 Descending Chicago Center
Mon 10:56:11 PM 42.0303 -88.1306 North 265 305 7,200 -1,623 Descending Chicago Center
Mon 10:57:12 PM 42.0903 -88.1528 345° North 240 276 5,200 -1,869 Descending Chicago Center
Mon 10:58:13 PM 42.0872 -88.0561 92° East 236 272 3,400 -1,770 Descending Chicago Center

Login

Don't have an account? Register now (free) for customized features, flight alerts, and more!